createdAt,value
2018-06-04T00:02:14.236Z,25.40
2018-06-04T00:04:43.343Z,28.70
2018-06-04T00:07:12.465Z,29.67
2018-06-04T00:09:41.557Z,27.13
2018-06-04T00:12:10.629Z,29.60
2018-06-04T00:14:39.723Z,28.13
2018-06-04T00:17:08.840Z,27.87
2018-06-04T00:19:37.935Z,28.80
2018-06-04T00:22:07.019Z,29.33
2018-06-04T00:24:36.123Z,29.40
2018-06-04T00:27:05.214Z,29.70
2018-06-04T00:29:34.270Z,29.13
2018-06-04T00:32:03.376Z,31.53
2018-06-04T00:34:32.497Z,30.57
2018-06-04T00:37:01.600Z,30.03
2018-06-04T00:39:30.647Z,33.80
2018-06-04T00:41:59.771Z,31.00
2018-06-04T00:44:28.848Z,33.93
2018-06-04T00:46:57.915Z,31.93
2018-06-04T00:49:27.018Z,31.73
2018-06-04T00:51:56.140Z,29.67
2018-06-04T00:54:25.240Z,31.93
2018-06-04T00:56:54.365Z,38.00
2018-06-04T00:59:23.442Z,36.27
2018-06-04T01:01:52.511Z,35.03
2018-06-04T01:04:21.582Z,38.80
2018-06-04T01:06:50.685Z,39.07
2018-06-04T01:09:19.823Z,40.57
2018-06-04T01:11:48.922Z,38.60
2018-06-04T01:14:18.001Z,36.50
2018-06-04T01:16:47.088Z,36.77
2018-06-04T01:19:16.202Z,37.83
2018-06-04T01:21:45.263Z,34.17
2018-06-04T01:24:14.351Z,36.10
2018-06-04T01:26:43.463Z,33.83
2018-06-04T01:29:12.555Z,35.17
2018-06-04T01:31:41.660Z,36.43
2018-06-04T01:34:10.764Z,34.97
2018-06-04T01:36:39.864Z,31.53
2018-06-04T01:39:09.006Z,35.63
2018-06-04T01:41:38.104Z,36.10
2018-06-04T01:44:07.260Z,36.10
2018-06-04T01:46:36.378Z,37.53
2018-06-04T01:49:05.432Z,35.73
2018-06-04T01:51:34.504Z,34.50
2018-06-04T01:54:03.601Z,38.27
2018-06-04T01:56:32.676Z,37.23
2018-06-04T01:59:01.774Z,34.80
2018-06-04T02:01:30.907Z,34.50
2018-06-04T02:03:59.988Z,33.53
2018-06-04T02:06:29.084Z,34.80
2018-06-04T02:08:58.315Z,36.80
2018-06-04T02:11:27.451Z,32.87
2018-06-04T02:13:56.532Z,33.47
2018-06-04T02:16:25.638Z,30.03
2018-06-04T02:18:54.708Z,30.60
2018-06-04T02:21:23.803Z,35.27
2018-06-04T02:23:52.630Z,32.10
2018-06-04T02:26:27.611Z,29.87
2018-06-04T02:28:56.719Z,28.97
2018-06-04T02:31:25.805Z,33.27
2018-06-04T02:33:54.892Z,29.37
2018-06-04T02:36:23.987Z,28.40
2018-06-04T02:38:53.065Z,29.03
2018-06-04T02:41:22.135Z,28.97
2018-06-04T02:43:51.198Z,31.17
2018-06-04T02:46:20.306Z,28.67
2018-06-04T02:48:49.392Z,29.37
2018-06-04T02:51:18.465Z,28.40
2018-06-04T02:53:47.556Z,31.10
2018-06-04T02:56:16.653Z,30.00
2018-06-04T02:58:46.340Z,29.73
2018-06-04T03:01:15.400Z,29.53
2018-06-04T03:03:44.475Z,29.93
2018-06-04T03:06:13.562Z,30.00
2018-06-04T03:08:42.681Z,31.27
2018-06-04T03:11:11.791Z,31.73
2018-06-04T03:13:40.931Z,30.33
2018-06-04T03:16:10.001Z,28.30
2018-06-04T03:18:39.055Z,36.87
2018-06-04T03:21:08.167Z,30.67
2018-06-04T03:23:37.247Z,33.10
2018-06-04T03:26:06.339Z,26.70
2018-06-04T03:28:35.439Z,27.90
2018-06-04T03:31:04.559Z,30.73
2018-06-04T03:33:33.660Z,35.13
2018-06-04T03:36:02.703Z,30.60
2018-06-04T03:38:31.799Z,29.80
2018-06-04T03:41:00.923Z,31.63
2018-06-04T03:43:29.979Z,31.70
2018-06-04T03:45:59.049Z,30.77
2018-06-04T03:48:28.163Z,34.80
2018-06-04T03:50:57.280Z,29.60
2018-06-04T03:53:26.364Z,33.33
2018-06-04T03:55:55.482Z,30.40
2018-06-04T03:58:24.583Z,40.03
2018-06-04T04:00:53.656Z,33.20
2018-06-04T04:03:22.716Z,32.50
2018-06-04T04:05:51.778Z,35.03
2018-06-04T04:08:20.907Z,34.73
2018-06-04T04:10:50.159Z,37.00
2018-06-04T04:13:19.430Z,40.97
2018-06-04T04:15:48.666Z,39.43
2018-06-04T04:18:17.818Z,34.90
2018-06-04T04:20:46.908Z,33.27
2018-06-04T04:23:15.981Z,38.10
2018-06-04T04:25:45.068Z,37.47
2018-06-04T04:28:14.201Z,39.00
2018-06-04T04:30:43.272Z,40.80
2018-06-04T04:33:12.396Z,40.53
2018-06-04T04:35:41.468Z,37.90
2018-06-04T04:38:10.556Z,38.80
2018-06-04T04:40:39.707Z,45.60
2018-06-04T04:43:08.779Z,37.20
2018-06-04T04:45:37.985Z,37.70
2018-06-04T04:48:07.088Z,37.30
2018-06-04T04:50:36.196Z,36.23
2018-06-04T04:53:05.272Z,34.57
2018-06-04T04:55:34.397Z,38.50
2018-06-04T04:58:03.518Z,38.57
2018-06-04T05:00:32.644Z,37.93
2018-06-04T05:03:01.689Z,40.37
2018-06-04T05:05:30.807Z,39.33
2018-06-04T05:07:59.905Z,40.73
2018-06-04T05:10:28.971Z,40.80
2018-06-04T05:12:58.068Z,38.10
2018-06-04T05:15:27.151Z,37.53
2018-06-04T05:17:56.309Z,38.00
2018-06-04T05:20:25.132Z,35.90
2018-06-04T05:22:54.088Z,40.30
2018-06-04T05:25:23.188Z,37.63
2018-06-04T05:27:52.252Z,38.83
2018-06-04T05:30:21.356Z,36.97
2018-06-04T05:32:52.486Z,37.63
2018-06-04T05:35:21.429Z,33.47
2018-06-04T05:37:50.378Z,36.93
2018-06-04T05:40:19.463Z,32.97
2018-06-04T05:42:49.127Z,37.43
2018-06-04T05:45:18.217Z,35.70
2018-06-04T05:47:47.323Z,34.83
2018-06-04T05:50:16.415Z,33.70
2018-06-04T05:52:45.501Z,35.40
2018-06-04T05:55:14.616Z,30.70
2018-06-04T05:57:43.705Z,35.70
2018-06-04T06:00:12.853Z,32.23
2018-06-04T06:02:41.929Z,34.53
2018-06-04T06:05:11.026Z,33.40
2018-06-04T06:07:40.143Z,33.37
2018-06-04T06:10:09.231Z,29.73
2018-06-04T06:12:38.319Z,35.07
2018-06-04T06:15:07.413Z,36.60
2018-06-04T06:17:36.524Z,31.67
2018-06-04T06:20:07.570Z,31.83
2018-06-04T06:22:36.654Z,31.83
2018-06-04T06:25:05.761Z,30.30
2018-06-04T06:27:34.879Z,28.33
2018-06-04T06:30:04.061Z,33.63
2018-06-04T06:32:33.112Z,29.20
2018-06-04T06:35:02.208Z,32.43
2018-06-04T06:37:31.302Z,29.60
2018-06-04T06:40:00.398Z,30.40
2018-06-04T06:42:29.532Z,31.97
2018-06-04T06:44:58.633Z,30.77
2018-06-04T06:47:27.741Z,31.57
2018-06-04T06:49:56.834Z,32.77
2018-06-04T06:52:26.004Z,34.97
2018-06-04T06:54:55.133Z,33.93
2018-06-04T06:57:24.260Z,33.67
2018-06-04T06:59:53.436Z,34.20
2018-06-04T07:02:22.575Z,32.93
2018-06-04T07:04:51.691Z,33.47
2018-06-04T07:07:21.020Z,32.37
2018-06-04T07:09:52.152Z,30.90
2018-06-04T07:12:21.311Z,32.87
2018-06-04T07:14:50.469Z,35.30
2018-06-04T07:17:19.591Z,31.67
2018-06-04T07:19:48.706Z,33.73
2018-06-04T07:22:17.860Z,33.67
2018-06-04T07:24:46.979Z,33.23
2018-06-04T07:27:16.127Z,32.00
2018-06-04T07:29:45.234Z,30.93
2018-06-04T07:32:14.368Z,30.93
2018-06-04T07:34:43.461Z,34.33
2018-06-04T07:37:12.612Z,32.63
2018-06-04T07:39:41.732Z,30.93
2018-06-04T07:42:10.881Z,33.00
2018-06-04T07:44:40.057Z,30.60
2018-06-04T07:47:09.154Z,31.37
2018-06-04T07:49:38.291Z,32.67
2018-06-04T07:52:07.382Z,30.57
2018-06-04T07:54:36.470Z,27.73
2018-06-04T07:57:05.620Z,30.93
2018-06-04T07:59:34.730Z,29.40
2018-06-04T08:02:03.896Z,25.93
2018-06-04T08:04:32.790Z,25.50
2018-06-04T08:07:01.758Z,29.13
2018-06-04T08:09:30.886Z,27.00
2018-06-04T08:12:00.016Z,25.03
2018-06-04T08:14:29.148Z,28.03
2018-06-04T08:16:58.235Z,24.50
2018-06-04T08:19:27.390Z,23.70
2018-06-04T08:21:56.495Z,25.73
2018-06-04T08:24:25.577Z,24.77
2018-06-04T08:26:54.668Z,29.07
2018-06-04T08:29:23.760Z,28.40
2018-06-04T08:31:52.863Z,26.83
2018-06-04T08:34:21.954Z,26.07
2018-06-04T08:36:51.256Z,27.40
2018-06-04T08:39:20.421Z,27.90
2018-06-04T08:41:49.530Z,26.33
2018-06-04T08:44:18.478Z,24.90
2018-06-04T08:46:47.900Z,25.20
2018-06-04T08:49:17.043Z,23.00
2018-06-04T08:51:45.876Z,26.70
2018-06-04T08:54:14.848Z,27.30
2018-06-04T08:56:43.998Z,25.50
2018-06-04T08:59:13.107Z,24.27
2018-06-04T09:01:42.192Z,22.37
2018-06-04T09:04:11.316Z,23.70
2018-06-04T09:06:40.406Z,20.37
2018-06-04T09:09:09.474Z,23.47
2018-06-04T09:11:38.827Z,21.60
2018-06-04T09:14:07.917Z,23.77
2018-06-04T09:16:37.056Z,22.33
2018-06-04T09:19:06.158Z,21.83
2018-06-04T09:21:35.274Z,20.07
2018-06-04T09:24:04.336Z,22.90
2018-06-04T09:26:33.397Z,20.57
2018-06-04T09:29:02.604Z,21.20
2018-06-04T09:31:31.720Z,20.63
2018-06-04T09:34:00.818Z,19.43
2018-06-04T09:36:29.618Z,17.67
2018-06-04T09:38:58.568Z,18.90
2018-06-04T09:41:27.661Z,21.57
2018-06-04T09:43:56.747Z,21.73
2018-06-04T09:46:25.856Z,19.30
2018-06-04T09:48:54.945Z,20.83
2018-06-04T09:51:24.044Z,19.03
2018-06-04T09:53:53.256Z,22.37
2018-06-04T09:56:22.278Z,19.03
2018-06-04T09:58:51.380Z,23.40
2018-06-04T10:01:20.492Z,19.90
2018-06-04T10:03:49.748Z,17.93
2018-06-04T10:06:18.829Z,16.17
2018-06-04T10:08:47.947Z,19.70
2018-06-04T10:11:17.337Z,18.67
2018-06-04T10:13:46.431Z,20.37
2018-06-04T10:16:15.536Z,21.77
2018-06-04T10:18:44.642Z,20.20
2018-06-04T10:21:13.728Z,16.60
2018-06-04T10:23:42.927Z,18.73
2018-06-04T10:26:12.023Z,20.80
2018-06-04T10:28:41.131Z,20.47
2018-06-04T10:31:10.224Z,16.37
2018-06-04T10:33:39.358Z,18.00
2018-06-04T10:36:08.454Z,22.07
2018-06-04T10:38:37.535Z,19.50
2018-06-04T10:41:06.583Z,18.87
2018-06-04T10:43:35.415Z,18.47
2018-06-04T10:46:04.421Z,20.03
2018-06-04T10:48:33.496Z,20.00
2018-06-04T10:51:02.588Z,18.47
2018-06-04T10:53:32.071Z,20.13
2018-06-04T10:56:01.192Z,20.20
2018-06-04T10:58:30.323Z,15.77
2018-06-04T11:00:59.425Z,17.70
2018-06-04T11:03:28.556Z,15.03
2018-06-04T11:05:57.624Z,16.00
2018-06-04T11:08:26.731Z,15.93
2018-06-04T11:10:55.811Z,13.03
2018-06-04T11:13:24.902Z,13.87
2018-06-04T11:15:54.007Z,15.63
2018-06-04T11:18:23.192Z,13.33
2018-06-04T11:20:52.275Z,11.47
2018-06-04T11:23:21.448Z,15.00
2018-06-04T11:25:50.636Z,12.50
2018-06-04T11:28:19.687Z,12.30
2018-06-04T11:30:48.797Z,12.13
2018-06-04T11:33:17.919Z,12.80
2018-06-04T11:35:47.019Z,12.00
2018-06-04T11:38:16.194Z,13.30
2018-06-04T11:40:45.268Z,11.60
2018-06-04T11:43:14.384Z,12.03
2018-06-04T11:45:43.481Z,13.23
2018-06-04T11:48:12.564Z,15.03
2018-06-04T11:50:41.656Z,11.87
2018-06-04T11:53:10.751Z,12.23
2018-06-04T11:55:39.900Z,12.27
2018-06-04T11:58:09.031Z,11.80
2018-06-04T12:00:38.173Z,9.83
2018-06-04T12:03:07.224Z,10.70
2018-06-04T12:05:36.331Z,12.80
2018-06-04T12:08:05.417Z,11.47
2018-06-04T12:10:34.593Z,12.07
2018-06-04T12:13:03.715Z,12.30
2018-06-04T12:15:32.774Z,12.90
2018-06-04T12:18:01.914Z,10.87
2018-06-04T12:20:30.988Z,11.50
2018-06-04T12:23:00.075Z,11.30
2018-06-04T12:25:29.170Z,9.87
2018-06-04T12:27:58.264Z,10.10
2018-06-04T12:30:27.342Z,11.23
2018-06-04T12:32:56.948Z,10.57
2018-06-04T12:35:26.396Z,11.27
2018-06-04T12:37:55.247Z,10.40
2018-06-04T12:40:24.262Z,9.37
2018-06-04T12:42:53.359Z,9.10
2018-06-04T12:45:22.463Z,10.50
2018-06-04T12:47:51.577Z,14.17
2018-06-04T12:50:20.750Z,11.53
2018-06-04T12:52:49.879Z,11.30
2018-06-04T12:55:18.983Z,10.70
2018-06-04T12:57:48.056Z,9.07
2018-06-04T13:00:17.166Z,8.70
2018-06-04T13:02:46.243Z,9.37
2018-06-04T13:05:15.343Z,11.97
2018-06-04T13:07:44.424Z,11.47
2018-06-04T13:10:13.491Z,10.87
2018-06-04T13:12:42.500Z,10.67
2018-06-04T13:15:11.571Z,9.00
2018-06-04T13:17:40.771Z,10.10
2018-06-04T13:20:09.905Z,11.27
2018-06-04T13:22:39.134Z,10.50
2018-06-04T13:25:08.694Z,10.30
2018-06-04T13:27:37.869Z,12.37
2018-06-04T13:30:06.960Z,11.80
2018-06-04T13:32:36.131Z,12.60
2018-06-04T13:35:05.271Z,11.73
2018-06-04T13:37:34.367Z,10.70
2018-06-04T13:40:03.481Z,11.67
2018-06-04T13:42:32.683Z,11.90
2018-06-04T13:45:02.076Z,12.20
2018-06-04T13:47:32.107Z,12.57
2018-06-04T13:50:01.203Z,11.10
2018-06-04T13:52:30.444Z,11.07
2018-06-04T13:54:59.615Z,12.93
2018-06-04T13:57:28.882Z,16.10
2018-06-04T13:59:58.083Z,13.20
2018-06-04T14:02:27.267Z,11.50
2018-06-04T14:04:56.487Z,13.20
2018-06-04T14:07:25.612Z,12.63
2018-06-04T14:09:54.749Z,12.13
2018-06-04T14:12:23.870Z,12.13
2018-06-04T14:14:53.017Z,12.00
2018-06-04T14:17:22.118Z,13.87
2018-06-04T14:19:51.232Z,11.37
2018-06-04T14:22:20.300Z,10.07
2018-06-04T14:24:49.546Z,11.47
2018-06-04T14:27:18.630Z,9.77
2018-06-04T14:29:47.743Z,11.00
2018-06-04T14:32:16.909Z,11.27
2018-06-04T14:34:46.406Z,12.60
2018-06-04T14:37:15.595Z,11.10
2018-06-04T14:39:44.695Z,11.53
2018-06-04T14:42:14.023Z,11.73
2018-06-04T14:44:43.264Z,11.37
2018-06-04T14:47:12.435Z,10.30
2018-06-04T14:49:41.598Z,11.47
2018-06-04T14:52:11.287Z,12.40
2018-06-04T14:54:40.383Z,9.90
2018-06-04T14:57:09.488Z,12.37
2018-06-04T14:59:38.607Z,12.00
2018-06-04T15:02:07.655Z,10.87
2018-06-04T15:04:36.735Z,10.33
2018-06-04T15:07:05.848Z,11.50
2018-06-04T15:09:34.958Z,12.43
2018-06-04T15:12:04.058Z,13.07
2018-06-04T15:14:33.171Z,11.90
2018-06-04T15:17:02.328Z,12.93
2018-06-04T15:19:31.421Z,12.50
2018-06-04T15:22:00.563Z,13.03
2018-06-04T15:24:29.685Z,13.27
2018-06-04T15:26:58.779Z,13.07
2018-06-04T15:29:27.869Z,11.10
2018-06-04T15:31:56.952Z,11.07
2018-06-04T15:34:26.022Z,11.40
2018-06-04T15:36:55.119Z,10.60
2018-06-04T15:39:24.182Z,11.87
2018-06-04T15:41:53.259Z,12.67
2018-06-04T15:44:22.115Z,12.20
2018-06-04T15:46:51.192Z,12.93
2018-06-04T15:49:20.270Z,11.70
2018-06-04T15:51:49.383Z,12.30
2018-06-04T15:54:18.452Z,11.77
2018-06-04T15:56:47.508Z,11.00
2018-06-04T15:59:16.677Z,11.70
2018-06-04T16:01:45.738Z,11.17
2018-06-04T16:04:14.820Z,10.50
2018-06-04T16:06:43.916Z,11.00
2018-06-04T16:09:13.000Z,11.50
2018-06-04T16:11:42.067Z,11.30
2018-06-04T16:14:11.243Z,11.70
2018-06-04T16:16:40.356Z,11.27
2018-06-04T16:19:09.472Z,12.63
2018-06-04T16:21:38.570Z,11.90
2018-06-04T16:24:07.636Z,10.03
2018-06-04T16:26:36.762Z,9.93
2018-06-04T16:29:05.890Z,9.30
2018-06-04T16:31:34.980Z,10.67
2018-06-04T16:34:04.038Z,8.93
2018-06-04T16:36:33.116Z,8.50
2018-06-04T16:39:02.324Z,7.80
2018-06-04T16:41:31.407Z,8.80
2018-06-04T16:44:00.494Z,8.57
2018-06-04T16:46:29.543Z,9.07
2018-06-04T16:48:58.643Z,7.40
2018-06-04T16:51:27.717Z,9.57
2018-06-04T16:53:56.786Z,8.40
2018-06-04T16:56:25.912Z,9.60
2018-06-04T16:58:55.007Z,9.60
2018-06-04T17:01:23.884Z,10.37
2018-06-04T17:03:52.827Z,9.87
2018-06-04T17:06:21.900Z,10.50
2018-06-04T17:08:50.987Z,8.37
2018-06-04T17:11:20.066Z,8.70
2018-06-04T17:13:49.127Z,8.40
2018-06-04T17:16:18.195Z,9.43
2018-06-04T17:18:47.289Z,8.50
2018-06-04T17:21:16.337Z,10.07
2018-06-04T17:23:45.477Z,9.10
2018-06-04T17:26:14.599Z,9.00
2018-06-04T17:28:43.413Z,10.40
2018-06-04T17:31:12.388Z,10.20
2018-06-04T17:33:41.483Z,10.60
2018-06-04T17:36:10.650Z,11.60
2018-06-04T17:38:40.075Z,13.00
2018-06-04T17:41:09.163Z,11.40
2018-06-04T17:43:38.273Z,13.30
2018-06-04T17:46:07.442Z,13.37
2018-06-04T17:48:36.488Z,13.20
2018-06-04T17:51:05.641Z,13.63
2018-06-04T17:53:34.724Z,14.17
2018-06-04T17:56:03.821Z,14.60
2018-06-04T17:58:32.936Z,13.83
2018-06-04T18:01:02.068Z,12.30
2018-06-04T18:03:31.240Z,14.87
2018-06-04T18:06:00.370Z,15.53
2018-06-04T18:08:29.474Z,14.93
2018-06-04T18:10:58.547Z,13.27
2018-06-04T18:13:27.667Z,12.00
2018-06-04T18:15:56.773Z,12.87
2018-06-04T18:18:25.919Z,12.07
2018-06-04T18:20:55.000Z,12.03
2018-06-04T18:23:24.076Z,11.47
2018-06-04T18:25:53.168Z,10.30
2018-06-04T18:28:22.264Z,11.10
2018-06-04T18:30:51.192Z,10.57
2018-06-04T18:33:20.125Z,11.10
2018-06-04T18:35:49.171Z,10.40
2018-06-04T18:38:18.237Z,9.90
2018-06-04T18:40:47.070Z,11.13
2018-06-04T18:43:16.014Z,9.73
2018-06-04T18:45:45.207Z,11.53
2018-06-04T18:48:14.263Z,10.30
2018-06-04T18:50:43.569Z,10.70
2018-06-04T18:53:12.749Z,9.23
2018-06-04T18:55:41.807Z,9.03
2018-06-04T18:58:10.890Z,9.60
2018-06-04T19:00:40.026Z,9.30
2018-06-04T19:03:09.124Z,9.77
2018-06-04T19:05:38.267Z,11.23
2018-06-04T19:08:07.367Z,10.80
2018-06-04T19:10:36.436Z,13.73
2018-06-04T19:13:05.600Z,11.03
2018-06-04T19:15:34.401Z,11.83
2018-06-04T19:18:03.412Z,11.63
2018-06-04T19:20:32.489Z,10.97
2018-06-04T19:23:01.560Z,10.53
2018-06-04T19:25:30.695Z,11.90
2018-06-04T19:27:59.835Z,11.47
2018-06-04T19:30:28.948Z,12.17
2018-06-04T19:32:58.054Z,13.60
2018-06-04T19:35:27.261Z,12.70
2018-06-04T19:37:56.367Z,14.47
2018-06-04T19:40:25.719Z,13.60
2018-06-04T19:42:54.818Z,13.00
2018-06-04T19:45:23.927Z,15.43
2018-06-04T19:47:52.970Z,14.50
2018-06-04T19:50:22.171Z,14.03
2018-06-04T19:52:51.600Z,14.27
2018-06-04T19:55:20.674Z,14.53
2018-06-04T19:57:50.119Z,15.77
2018-06-04T20:00:19.179Z,15.87
2018-06-04T20:02:48.339Z,15.87
2018-06-04T20:05:17.440Z,16.23
2018-06-04T20:07:46.940Z,15.97
2018-06-04T20:10:16.057Z,15.90
2018-06-04T20:12:45.613Z,16.67
2018-06-04T20:15:14.756Z,17.10
2018-06-04T20:17:44.177Z,16.17
2018-06-04T20:20:13.635Z,15.87
2018-06-04T20:22:42.736Z,16.87
2018-06-04T20:25:11.966Z,15.77
2018-06-04T20:27:41.012Z,15.20
2018-06-04T20:30:10.414Z,16.10
2018-06-04T20:32:39.908Z,17.57
2018-06-04T20:35:08.980Z,18.27
2018-06-04T20:37:38.229Z,18.00
2018-06-04T20:40:07.416Z,18.90
2018-06-04T20:42:36.469Z,19.27
2018-06-04T20:45:05.598Z,19.20
2018-06-04T20:47:34.656Z,18.20
2018-06-04T20:50:03.784Z,20.40
2018-06-04T20:52:32.860Z,17.43
2018-06-04T20:55:01.935Z,20.20
2018-06-04T20:57:31.000Z,20.63
2018-06-04T21:00:00.100Z,20.27
2018-06-04T21:02:29.188Z,17.57
2018-06-04T21:04:58.260Z,19.07
2018-06-04T21:07:27.475Z,19.63
2018-06-04T21:09:56.555Z,22.13
2018-06-04T21:12:25.701Z,20.00
2018-06-04T21:14:54.806Z,21.40
2018-06-04T21:17:23.892Z,21.67
2018-06-04T21:19:53.011Z,21.10
2018-06-04T21:22:22.129Z,18.90
2018-06-04T21:24:51.236Z,18.87
2018-06-04T21:27:20.311Z,20.37
2018-06-04T21:29:49.403Z,19.87
2018-06-04T21:32:18.480Z,21.37
2018-06-04T21:34:47.542Z,20.07
2018-06-04T21:37:16.612Z,21.37
2018-06-04T21:39:45.669Z,24.30
2018-06-04T21:42:14.807Z,24.90
2018-06-04T21:44:43.867Z,24.23
2018-06-04T21:47:12.961Z,24.53
2018-06-04T21:49:42.084Z,27.03
2018-06-04T21:52:11.226Z,25.87
2018-06-04T21:54:40.332Z,27.87
2018-06-04T21:57:09.449Z,26.27
2018-06-04T21:59:38.546Z,25.20
2018-06-04T22:02:07.619Z,26.10
2018-06-04T22:04:36.726Z,27.07
2018-06-04T22:07:05.948Z,28.10
2018-06-04T22:09:35.055Z,28.30
2018-06-04T22:12:04.146Z,28.47
2018-06-04T22:14:33.210Z,27.13
2018-06-04T22:17:02.308Z,27.97
2018-06-04T22:19:31.383Z,28.20
2018-06-04T22:22:00.460Z,28.33
2018-06-04T22:24:29.550Z,27.67
2018-06-04T22:26:58.635Z,26.57
2018-06-04T22:29:27.734Z,25.03
2018-06-04T22:31:56.885Z,26.30
2018-06-04T22:34:25.974Z,26.70
2018-06-04T22:36:55.071Z,26.40
2018-06-04T22:39:24.119Z,26.33
2018-06-04T22:41:53.198Z,27.33
2018-06-04T22:44:22.270Z,26.67
2018-06-04T22:46:51.400Z,27.37
2018-06-04T22:49:20.495Z,28.07
2018-06-04T22:51:49.594Z,27.87
2018-06-04T22:54:18.646Z,26.30
2018-06-04T22:56:47.535Z,25.33
2018-06-04T22:59:16.502Z,23.47
2018-06-04T23:01:45.564Z,25.60
2018-06-04T23:04:14.655Z,27.17
2018-06-04T23:06:43.723Z,26.73
2018-06-04T23:09:12.810Z,24.40
2018-06-04T23:11:41.919Z,23.47
2018-06-04T23:14:11.001Z,25.30
2018-06-04T23:16:40.071Z,24.30
2018-06-04T23:19:09.140Z,25.03
2018-06-04T23:21:38.289Z,24.30
2018-06-04T23:24:07.106Z,23.00
2018-06-04T23:26:36.062Z,24.23
2018-06-04T23:29:05.169Z,25.43
2018-06-04T23:31:34.236Z,22.60
2018-06-04T23:34:03.327Z,24.50
2018-06-04T23:36:32.422Z,22.27
2018-06-04T23:39:01.522Z,24.17
2018-06-04T23:41:30.617Z,24.13
2018-06-04T23:43:59.683Z,25.23
2018-06-04T23:46:28.788Z,22.77
2018-06-04T23:48:57.846Z,23.50
2018-06-04T23:51:26.920Z,21.27
2018-06-04T23:53:56.012Z,21.90
2018-06-04T23:56:24.825Z,22.80
2018-06-04T23:58:53.806Z,22.13
